Time;durP1;ratioP1;P1;durP2;ratioP2;P2;SDS_P1;SDS_P2;PMS_P1;PMS_P2;Temp;Humidity;BMP_temperature;BMP_pressure;BME280_temperature;BME280_humidity;BME280_pressure;Samples;Min_cycle;Max_cycle;Signal;HPM_P1;HPM_P2
2022/01/21 00:00:44;;;;;;;;;;;;;;;;;;5057722;28;20334;-82
2022/01/21 00:03:09;;;;;;;;;;;;;;;;;;5059615;28;19916;-82
2022/01/21 00:05:37;;;;;;;;;;;;;;;;;;5057158;28;19928;-85
2022/01/21 00:08:05;;;;;;;;;;;;;;;;;;5063169;28;19921;-84
2022/01/21 00:10:31;;;;;;;;;;;;;;;;;;5056887;28;20000;-85
2022/01/21 00:12:57;;;;;;;;;;;;;;;;;;5056052;28;20020;-83
2022/01/21 00:15:25;;;;;;;;;;;;;;;;;;5057210;28;19999;-85
2022/01/21 00:18:08;;;;;;;;;;;;;;;;;;5055931;28;19923;-84
2022/01/21 00:32:07;;;;;;;;;;;;;;;;;;5056429;28;20020;-83
2022/01/21 00:34:32;;;;;;;;;;;;;;;;;;5054680;28;19923;-86
2022/01/21 00:37:06;;;;;;;;;;;;;;;;;;5054628;28;19921;-85
2022/01/21 00:39:52;;;;;;;;;;;;;;;;;;5056375;28;19931;-82
2022/01/21 00:44:46;;;;;;;;;;;;;;;;;;5056342;28;19913;-83
2022/01/21 00:47:27;;;;;;;;;;;;;;;;;;5040283;28;19912;-83
2022/01/21 00:49:52;;;;;;;;;;;;;;;;;;5055257;28;20311;-84
2022/01/21 00:52:20;;;;;;;;;;;;;;;;;;5055883;28;20016;-84
2022/01/21 00:54:45;;;;;;;;;;;;;;;;;;5086433;28;20019;-77
2022/01/21 00:57:15;;;;;;;;;;;;;;;;;;5056828;28;20023;-74
2022/01/21 00:59:40;;;;;;;;;;;;;;;;;;5055066;28;19932;-75
2022/01/21 01:02:08;;;;;;;;;;;;;;;;;;5055584;28;20278;-75
2022/01/21 01:04:35;;;;;;;;;;;;;;;;;;5055445;28;19913;-75
2022/01/21 01:07:00;;;;;;;;;;;;;;;;;;5055163;28;19917;-74
2022/01/21 01:09:25;;;;;;;;;;;;;;;;;;5055491;28;20238;-74
2022/01/21 01:20:03;;;;;;;;;;;;;;;;;;5055552;28;19928;-75
2022/01/21 01:22:46;;;;;;;;;;;;;;;;;;5054413;28;19921;-73
2022/01/21 01:27:58;;;;;;;;;;;;;;;;;;5055661;28;19928;-77
2022/01/21 01:30:24;;;;;;;;;;;;;;;;;;5053984;28;19916;-78
2022/01/21 01:33:08;;;;;;;;;;;;;;;;;;5070082;28;20542;-78
2022/01/21 01:35:34;;;;;;;;;;;;;;;;;;5041095;28;19967;-77
2022/01/21 01:40:54;;;;;;;;;;;;;;;;;;5054855;28;20368;-77
2022/01/21 01:51:19;;;;;;;;;;;;;;;;;;5040633;28;19928;-75
2022/01/21 01:53:46;;;;;;;;;;;;;;;;;;5054451;28;19921;-75
2022/01/21 01:56:17;;;;;;;;;;;;;;;;;;5045556;28;20257;-75
2022/01/21 01:58:43;;;;;;;;;;;;;;;;;;5050908;28;19919;-74
2022/01/21 02:01:08;;;;;;;;;;;;;;;;;;5054444;28;20328;-75
2022/01/21 02:03:34;;;;;;;;;;;;;;;;;;5055436;28;19917;-77
2022/01/21 02:06:01;;;;;;;;;;;;;;;;;;5055464;28;19959;-75
2022/01/21 02:08:29;;;;;;;;;;;;;;;;;;5054132;28;19917;-74
2022/01/21 02:10:55;;;;;;;;;;;;;;;;;;5052152;28;19917;-75
2022/01/21 02:13:28;;;;;;;;;;;;;;;;;;5053578;28;19978;-75
2022/01/21 02:16:10;;;;;;;;;;;;;;;;;;5055218;28;19913;-75
2022/01/21 02:21:36;;;;;;;;;;;;;;;;;;5054377;28;19959;-75
2022/01/21 02:24:07;;;;;;;;;;;;;;;;;;5053865;28;20353;-77
2022/01/21 02:26:33;;;;;;;;;;;;;;;;;;5053890;28;19924;-75
2022/01/21 02:29:00;;;;;;;;;;;;;;;;;;5053260;28;19920;-74
2022/01/21 02:31:26;;;;;;;;;;;;;;;;;;5053935;28;19924;-75
2022/01/21 02:33:53;;;;;;;;;;;;;;;;;;5054370;28;19917;-74
2022/01/21 02:36:21;;;;;;;;;;;;;;;;;;5054741;28;20011;-74
2022/01/21 02:38:46;;;;;;;;;;;;;;;;;;5054305;28;19917;-76
2022/01/21 02:41:11;;;;;;;;;;;;;;;;;;5054342;28;19917;-75
2022/01/21 02:43:41;;;;;;;;;;;;;;;;;;5054226;28;19921;-75
2022/01/21 02:46:09;;;;;;;;;;;;;;;;;;5053659;28;20250;-75
2022/01/21 02:48:37;;;;;;;;;;;;;;;;;;5053788;28;19917;-75
2022/01/21 02:51:05;;;;;;;;;;;;;;;;;;5054570;28;19990;-75
2022/01/21 02:56:11;;;;;;;;;;;;;;;;;;5051709;28;20296;-75
2022/01/21 02:58:37;;;;;;;;;;;;;;;;;;5053739;28;19928;-73
2022/01/21 03:01:03;;;;;;;;;;;;;;;;;;5052099;28;19932;-75
2022/01/21 03:03:31;;;;;;;;;;;;;;;;;;5062284;28;19925;-75
2022/01/21 03:06:01;;;;;;;;;;;;;;;;;;5054678;28;20016;-74
2022/01/21 03:08:29;;;;;;;;;;;;;;;;;;5040610;28;19939;-75
2022/01/21 03:10:57;;;;;;;;;;;;;;;;;;5058452;28;19917;-74
2022/01/21 03:13:22;;;;;;;;;;;;;;;;;;5052590;28;20011;-74
2022/01/21 03:15:48;;;;;;;;;;;;;;;;;;5052038;28;20048;-75
2022/01/21 03:18:16;;;;;;;;;;;;;;;;;;5054031;28;19999;-75
2022/01/21 03:20:42;;;;;;;;;;;;;;;;;;5053589;28;19924;-75
2022/01/21 03:23:08;;;;;;;;;;;;;;;;;;5054182;28;20391;-75
2022/01/21 03:25:34;;;;;;;;;;;;;;;;;;5051171;28;20321;-75
2022/01/21 03:27:59;;;;;;;;;;;;;;;;;;5053860;28;19956;-76
2022/01/21 03:30:24;;;;;;;;;;;;;;;;;;5053977;28;19935;-75
2022/01/21 03:32:49;;;;;;;;;;;;;;;;;;5052929;28;19987;-75
2022/01/21 03:35:15;;;;;;;;;;;;;;;;;;5054308;28;20323;-76
2022/01/21 03:37:42;;;;;;;;;;;;;;;;;;5053266;28;19928;-75
2022/01/21 03:40:10;;;;;;;;;;;;;;;;;;5053123;28;20055;-75
2022/01/21 03:42:36;;;;;;;;;;;;;;;;;;5054363;28;20061;-75
2022/01/21 03:45:03;;;;;;;;;;;;;;;;;;5053854;28;20411;-75
2022/01/21 03:47:28;;;;;;;;;;;;;;;;;;5052948;28;19924;-76
2022/01/21 03:49:57;;;;;;;;;;;;;;;;;;5054008;28;19924;-76
2022/01/21 03:52:23;;;;;;;;;;;;;;;;;;5053910;28;20354;-76
2022/01/21 03:54:48;;;;;;;;;;;;;;;;;;5053963;28;19921;-76
2022/01/21 03:57:15;;;;;;;;;;;;;;;;;;5053505;28;20373;-76
2022/01/21 03:59:40;;;;;;;;;;;;;;;;;;5054201;28;19916;-76
2022/01/21 04:02:06;;;;;;;;;;;;;;;;;;5052889;28;20230;-75
2022/01/21 04:04:32;;;;;;;;;;;;;;;;;;5054048;28;20317;-75
2022/01/21 04:06:57;;;;;;;;;;;;;;;;;;5052983;28;19916;-75
2022/01/21 04:09:22;;;;;;;;;;;;;;;;;;5053416;28;19956;-75
2022/01/21 04:11:52;;;;;;;;;;;;;;;;;;5048823;28;19936;-76
2022/01/21 04:14:18;;;;;;;;;;;;;;;;;;5041074;28;19917;-74
2022/01/21 04:16:45;;;;;;;;;;;;;;;;;;5057897;28;19924;-74
2022/01/21 04:19:15;;;;;;;;;;;;;;;;;;5057349;28;20380;-75
2022/01/21 04:21:40;;;;;;;;;;;;;;;;;;5057230;28;19917;-76
2022/01/21 04:24:06;;;;;;;;;;;;;;;;;;5057210;28;20292;-76
2022/01/21 04:26:31;;;;;;;;;;;;;;;;;;5053142;28;19979;-75
2022/01/21 04:28:57;;;;;;;;;;;;;;;;;;5056741;28;19917;-76
2022/01/21 04:31:22;;;;;;;;;;;;;;;;;;5057171;28;19917;-76
2022/01/21 04:33:47;;;;;;;;;;;;;;;;;;5057047;28;19917;-75
2022/01/21 04:36:12;;;;;;;;;;;;;;;;;;5057123;28;19913;-75
2022/01/21 04:38:38;;;;;;;;;;;;;;;;;;5052927;28;19957;-76
2022/01/21 04:48:56;;;;;;;;;;;;;;;;;;5056687;28;19927;-76
2022/01/21 04:51:26;;;;;;;;;;;;;;;;;;5056348;28;19925;-75
2022/01/21 04:53:54;;;;;;;;;;;;;;;;;;5055993;28;19916;-75
2022/01/21 04:56:21;;;;;;;;;;;;;;;;;;5056622;28;20011;-75
2022/01/21 04:58:46;;;;;;;;;;;;;;;;;;5055333;28;19948;-76
2022/01/21 05:01:12;;;;;;;;;;;;;;;;;;5051051;28;20325;-75
2022/01/21 05:03:39;;;;;;;;;;;;;;;;;;5058117;28;20294;-75
2022/01/21 05:06:04;;;;;;;;;;;;;;;;;;5055741;28;20473;-75
2022/01/21 05:08:43;;;;;;;;;;;;;;;;;;5056312;28;19913;-74
2022/01/21 05:11:08;;;;;;;;;;;;;;;;;;5053956;28;20072;-76
2022/01/21 05:13:42;;;;;;;;;;;;;;;;;;5048648;28;20229;-75
2022/01/21 05:16:53;;;;;;;;;;;;;;;;;;5055573;28;19970;-74
2022/01/21 05:18:59;;;;;;;;;;;;;;;;;;5042544;28;20361;-75
2022/01/21 05:21:24;;;;;;;;;;;;;;;;;;5055439;28;19948;-75
2022/01/21 05:23:52;;;;;;;;;;;;;;;;;;5055198;28;19948;-75
2022/01/21 05:26:18;;;;;;;;;;;;;;;;;;5054630;28;19927;-75
2022/01/21 05:28:45;;;;;;;;;;;;;;;;;;5051379;28;20273;-75
2022/01/21 05:31:15;;;;;;;;;;;;;;;;;;5056242;28;19916;-75
2022/01/21 05:33:43;;;;;;;;;;;;;;;;;;5055471;28;19978;-75
2022/01/21 05:36:08;;;;;;;;;;;;;;;;;;5055735;28;20336;-75
2022/01/21 05:38:36;;;;;;;;;;;;;;;;;;5055766;28;19916;-75
2022/01/21 05:41:01;;;;;;;;;;;;;;;;;;5055685;28;20011;-75
2022/01/21 05:43:28;;;;;;;;;;;;;;;;;;5054973;28;20004;-76
2022/01/21 05:48:37;;;;;;;;;;;;;;;;;;5055067;28;20262;-75
2022/01/21 05:51:05;;;;;;;;;;;;;;;;;;5055665;28;19913;-75
2022/01/21 05:53:30;;;;;;;;;;;;;;;;;;5055303;28;19921;-75
2022/01/21 05:56:01;;;;;;;;;;;;;;;;;;5054547;28;19926;-75
2022/01/21 05:58:26;;;;;;;;;;;;;;;;;;5054749;28;19942;-75
2022/01/21 06:00:51;;;;;;;;;;;;;;;;;;5053796;28;20372;-75
2022/01/21 06:03:19;;;;;;;;;;;;;;;;;;5055386;28;19913;-76
2022/01/21 06:05:49;;;;;;;;;;;;;;;;;;5054252;28;19912;-76
2022/01/21 06:08:17;;;;;;;;;;;;;;;;;;5055257;28;20334;-76
2022/01/21 06:10:45;;;;;;;;;;;;;;;;;;5055090;28;20338;-76
2022/01/21 06:13:15;;;;;;;;;;;;;;;;;;5053363;28;20350;-76
2022/01/21 06:15:40;;;;;;;;;;;;;;;;;;5053931;28;19938;-76
2022/01/21 06:18:06;;;;;;;;;;;;;;;;;;5055096;28;19917;-76
2022/01/21 06:20:31;;;;;;;;;;;;;;;;;;5054578;28;19925;-75
2022/01/21 06:22:56;;;;;;;;;;;;;;;;;;5055203;28;20015;-76
2022/01/21 06:25:21;;;;;;;;;;;;;;;;;;5055149;28;19917;-76
2022/01/21 06:27:47;;;;;;;;;;;;;;;;;;5053904;28;20011;-76
2022/01/21 06:30:12;;;;;;;;;;;;;;;;;;5055118;28;20227;-76
2022/01/21 06:32:40;;;;;;;;;;;;;;;;;;5055332;28;19917;-76
2022/01/21 06:35:06;;;;;;;;;;;;;;;;;;5054835;28;19925;-76
2022/01/21 06:37:31;;;;;;;;;;;;;;;;;;5055097;28;20270;-76
2022/01/21 06:39:56;;;;;;;;;;;;;;;;;;5054868;28;19912;-76
2022/01/21 06:42:26;;;;;;;;;;;;;;;;;;5054678;28;19921;-75
2022/01/21 06:44:51;;;;;;;;;;;;;;;;;;5056089;28;19953;-76
2022/01/21 06:47:18;;;;;;;;;;;;;;;;;;5055055;28;19956;-76
2022/01/21 06:49:46;;;;;;;;;;;;;;;;;;5068536;28;20308;-76
2022/01/21 06:52:14;;;;;;;;;;;;;;;;;;5053875;28;19921;-76
2022/01/21 06:54:39;;;;;;;;;;;;;;;;;;5056736;28;20257;-75
2022/01/21 06:57:06;;;;;;;;;;;;;;;;;;5053829;28;19916;-78
2022/01/21 06:59:34;;;;;;;;;;;;;;;;;;5053826;28;19960;-76
2022/01/21 07:01:59;;;;;;;;;;;;;;;;;;5052496;28;19917;-76
2022/01/21 07:04:24;;;;;;;;;;;;;;;;;;5069851;28;19999;-76
2022/01/21 07:06:57;;;;;;;;;;;;;;;;;;5058622;28;19913;-77
2022/01/21 07:09:25;;;;;;;;;;;;;;;;;;5050087;28;19921;-76
2022/01/21 07:11:50;;;;;;;;;;;;;;;;;;5053807;28;20316;-75
2022/01/21 07:14:15;;;;;;;;;;;;;;;;;;5053441;28;19924;-77
2022/01/21 07:16:40;;;;;;;;;;;;;;;;;;5053146;28;19974;-77
2022/01/21 07:19:06;;;;;;;;;;;;;;;;;;5053654;28;20364;-76
2022/01/21 07:21:33;;;;;;;;;;;;;;;;;;5050140;28;19913;-77
2022/01/21 07:23:58;;;;;;;;;;;;;;;;;;5042279;28;19920;-76
2022/01/21 07:26:24;;;;;;;;;;;;;;;;;;5051845;28;19927;-77
2022/01/21 07:28:49;;;;;;;;;;;;;;;;;;5054406;28;19917;-75
2022/01/21 07:31:16;;;;;;;;;;;;;;;;;;5054281;28;19917;-76
2022/01/21 07:33:42;;;;;;;;;;;;;;;;;;5053726;28;20361;-77
2022/01/21 07:36:07;;;;;;;;;;;;;;;;;;5054196;28;19916;-76
2022/01/21 07:38:32;;;;;;;;;;;;;;;;;;5054233;28;20413;-76
2022/01/21 07:41:00;;;;;;;;;;;;;;;;;;5052941;28;19920;-76
2022/01/21 07:43:25;;;;;;;;;;;;;;;;;;5053759;28;19917;-76
2022/01/21 07:45:50;;;;;;;;;;;;;;;;;;5056288;28;19939;-75
2022/01/21 07:48:15;;;;;;;;;;;;;;;;;;5087140;28;19924;-78
2022/01/21 07:50:43;;;;;;;;;;;;;;;;;;5057608;28;19916;-77
2022/01/21 07:53:08;;;;;;;;;;;;;;;;;;5057517;28;19929;-75
2022/01/21 07:55:34;;;;;;;;;;;;;;;;;;5057886;28;19913;-77
2022/01/21 07:58:00;;;;;;;;;;;;;;;;;;5057699;28;19917;-77
2022/01/21 08:00:28;;;;;;;;;;;;;;;;;;5056828;28;20018;-79
2022/01/21 08:02:55;;;;;;;;;;;;;;;;;;5057101;28;19917;-78
2022/01/21 08:05:21;;;;;;;;;;;;;;;;;;5058450;28;19961;-77
2022/01/21 08:07:46;;;;;;;;;;;;;;;;;;5056979;28;20265;-76
2022/01/21 08:10:11;;;;;;;;;;;;;;;;;;5056969;28;19923;-76
2022/01/21 08:12:39;;;;;;;;;;;;;;;;;;5057041;28;19931;-76
2022/01/21 08:15:04;;;;;;;;;;;;;;;;;;5061487;28;20005;-77
2022/01/21 08:17:29;;;;;;;;;;;;;;;;;;5057354;28;19952;-77
2022/01/21 08:19:55;;;;;;;;;;;;;;;;;;5057998;28;19951;-76
2022/01/21 08:22:23;;;;;;;;;;;;;;;;;;5055949;28;19916;-77
2022/01/21 08:24:48;;;;;;;;;;;;;;;;;;5063093;28;19920;-77
2022/01/21 08:27:14;;;;;;;;;;;;;;;;;;5066920;28;19928;-77
2022/01/21 08:29:41;;;;;;;;;;;;;;;;;;5066314;28;19913;-76
2022/01/21 08:32:07;;;;;;;;;;;;;;;;;;5059231;28;20360;-76
2022/01/21 08:34:34;;;;;;;;;;;;;;;;;;5040860;28;19927;-77
2022/01/21 08:37:03;;;;;;;;;;;;;;;;;;5057616;28;19956;-76
2022/01/21 08:39:29;;;;;;;;;;;;;;;;;;5037585;28;19970;-77
2022/01/21 08:41:55;;;;;;;;;;;;;;;;;;5064732;28;19928;-77
2022/01/21 08:44:22;;;;;;;;;;;;;;;;;;5056141;28;19917;-76
2022/01/21 08:46:47;;;;;;;;;;;;;;;;;;5055584;28;20525;-76
2022/01/21 08:49:13;;;;;;;;;;;;;;;;;;5079650;28;19924;-75
2022/01/21 08:51:57;;;;;;;;;;;;;;;;;;5045004;28;19925;-76
2022/01/21 08:54:25;;;;;;;;;;;;;;;;;;5056122;28;20564;-76
2022/01/21 08:56:51;;;;;;;;;;;;;;;;;;5054990;28;19917;-77
2022/01/21 08:59:17;;;;;;;;;;;;;;;;;;5054866;28;20304;-76
2022/01/21 09:01:42;;;;;;;;;;;;;;;;;;5056072;28;19917;-76
2022/01/21 09:04:08;;;;;;;;;;;;;;;;;;5056797;28;20265;-76
2022/01/21 09:06:41;;;;;;;;;;;;;;;;;;5054208;28;19987;-77
2022/01/21 09:09:07;;;;;;;;;;;;;;;;;;5066419;28;19996;-78
2022/01/21 09:11:32;;;;;;;;;;;;;;;;;;5063717;28;20416;-78
2022/01/21 09:14:00;;;;;;;;;;;;;;;;;;5061939;28;19913;-77
2022/01/21 09:16:43;;;;;;;;;;;;;;;;;;5058428;28;19917;-77
2022/01/21 09:19:08;;;;;;;;;;;;;;;;;;5063686;28;19916;-77
2022/01/21 09:21:42;;;;;;;;;;;;;;;;;;5058752;28;20246;-78
2022/01/21 09:24:07;;;;;;;;;;;;;;;;;;5042573;28;19927;-77
2022/01/21 09:26:41;;;;;;;;;;;;;;;;;;5057622;28;19928;-78
2022/01/21 09:29:12;;;;;;;;;;;;;;;;;;5060682;28;20361;-78
2022/01/21 09:31:38;;;;;;;;;;;;;;;;;;5038554;28;20280;-78
2022/01/21 09:34:04;;;;;;;;;;;;;;;;;;5051106;28;19916;-78
2022/01/21 09:36:30;;;;;;;;;;;;;;;;;;5056289;28;19912;-78
2022/01/21 09:38:55;;;;;;;;;;;;;;;;;;5054623;28;19927;-78
2022/01/21 09:41:20;;;;;;;;;;;;;;;;;;5045813;28;19909;-78
2022/01/21 09:43:50;;;;;;;;;;;;;;;;;;5052698;28;19925;-78
2022/01/21 09:46:16;;;;;;;;;;;;;;;;;;5054678;28;19921;-77
2022/01/21 09:48:52;;;;;;;;;;;;;;;;;;5055358;28;20062;-77
2022/01/21 09:51:17;;;;;;;;;;;;;;;;;;5055205;28;19913;-78
2022/01/21 09:53:42;;;;;;;;;;;;;;;;;;5051225;28;19928;-77
2022/01/21 09:56:08;;;;;;;;;;;;;;;;;;5075727;28;19928;-77
2022/01/21 09:58:36;;;;;;;;;;;;;;;;;;5037166;28;20711;-77
2022/01/21 10:01:05;;;;;;;;;;;;;;;;;;5053877;28;19935;-77
2022/01/21 10:03:30;;;;;;;;;;;;;;;;;;5080914;28;19927;-78
2022/01/21 10:06:13;;;;;;;;;;;;;;;;;;5052813;28;19916;-91
2022/01/21 10:08:41;;;;;;;;;;;;;;;;;;5053813;28;19924;-84
2022/01/21 10:11:11;;;;;;;;;;;;;;;;;;5036735;28;19921;-78
2022/01/21 10:13:37;;;;;;;;;;;;;;;;;;5057842;28;19977;-76
2022/01/21 10:16:04;;;;;;;;;;;;;;;;;;5064555;28;20296;-76
2022/01/21 10:18:31;;;;;;;;;;;;;;;;;;5060203;28;19974;-76
2022/01/21 10:20:59;;;;;;;;;;;;;;;;;;5061223;28;19920;-75
2022/01/21 10:23:25;;;;;;;;;;;;;;;;;;5064615;28;20046;-75
2022/01/21 10:25:59;;;;;;;;;;;;;;;;;;5059308;28;20003;-75
2022/01/21 10:28:27;;;;;;;;;;;;;;;;;;5053008;28;19934;-79
2022/01/21 10:31:03;;;;;;;;;;;;;;;;;;5054970;28;19920;-80
2022/01/21 10:33:42;;;;;;;;;;;;;;;;;;5051621;28;20158;-86
2022/01/21 10:36:09;;;;;;;;;;;;;;;;;;5055494;28;19920;-85
2022/01/21 10:38:43;;;;;;;;;;;;;;;;;;5056121;28;19925;-89
2022/01/21 10:41:18;;;;;;;;;;;;;;;;;;5056292;28;19920;-80
2022/01/21 10:43:44;;;;;;;;;;;;;;;;;;5059844;28;19925;-83
2022/01/21 10:46:14;;;;;;;;;;;;;;;;;;5055684;28;20281;-84
2022/01/21 10:48:56;;;;;;;;;;;;;;;;;;5071433;28;19994;-80
2022/01/21 10:51:25;;;;;;;;;;;;;;;;;;5044352;28;19925;-86
2022/01/21 10:53:50;;;;;;;;;;;;;;;;;;5056740;28;19920;-85
2022/01/21 10:56:16;;;;;;;;;;;;;;;;;;5056260;28;19921;-82
2022/01/21 10:58:44;;;;;;;;;;;;;;;;;;5058772;28;19917;-84
2022/01/21 11:01:11;;;;;;;;;;;;;;;;;;5052912;28;19943;-87
2022/01/21 11:03:40;;;;;;;;;;;;;;;;;;5038745;28;19921;-82
2022/01/21 11:06:14;;;;;;;;;;;;;;;;;;5054893;28;20277;-82
2022/01/21 11:08:39;;;;;;;;;;;;;;;;;;5060458;28;19970;-87
2022/01/21 11:11:04;;;;;;;;;;;;;;;;;;5054372;28;21170;-87
2022/01/21 11:13:30;;;;;;;;;;;;;;;;;;5050987;28;19921;-89
2022/01/21 11:16:05;;;;;;;;;;;;;;;;;;5082792;28;20239;-90
2022/01/21 11:18:31;;;;;;;;;;;;;;;;;;5052921;28;20041;-88
2022/01/21 11:21:05;;;;;;;;;;;;;;;;;;5055978;28;20261;-86
2022/01/21 11:23:33;;;;;;;;;;;;;;;;;;5051056;28;19924;-90
2022/01/21 11:26:01;;;;;;;;;;;;;;;;;;5038348;28;19916;-86
2022/01/21 11:28:46;;;;;;;;;;;;;;;;;;5045364;28;19983;-86
2022/01/21 11:31:12;;;;;;;;;;;;;;;;;;5079335;28;19917;-89
2022/01/21 11:33:37;;;;;;;;;;;;;;;;;;5055243;28;19931;-86
2022/01/21 11:36:05;;;;;;;;;;;;;;;;;;5055546;28;20346;-88
2022/01/21 11:38:33;;;;;;;;;;;;;;;;;;5056667;28;19916;-87
2022/01/21 11:40:59;;;;;;;;;;;;;;;;;;5055048;28;19925;-87
2022/01/21 11:43:24;;;;;;;;;;;;;;;;;;5040771;28;19920;-88
2022/01/21 11:51:20;;;;;;;;;;;;;;;;;;5054130;28;19917;-88
2022/01/21 11:53:46;;;;;;;;;;;;;;;;;;5053960;28;20286;-87
2022/01/21 11:56:30;;;;;;;;;;;;;;;;;;5047895;28;19917;-89
2022/01/21 11:59:08;;;;;;;;;;;;;;;;;;5054740;28;19917;-84
2022/01/21 12:01:50;;;;;;;;;;;;;;;;;;5051349;28;20349;-80
2022/01/21 12:04:35;;;;;;;;;;;;;;;;;;5053095;28;20238;-80
2022/01/21 12:07:01;;;;;;;;;;;;;;;;;;5059242;28;20303;-83
2022/01/21 12:09:45;;;;;;;;;;;;;;;;;;5085156;28;20007;-81
2022/01/21 12:12:10;;;;;;;;;;;;;;;;;;5054510;28;20000;-80
2022/01/21 12:14:40;;;;;;;;;;;;;;;;;;5058027;28;20058;-82
2022/01/21 12:17:20;;;;;;;;;;;;;;;;;;5057138;28;19917;-84
2022/01/21 12:19:46;;;;;;;;;;;;;;;;;;5054251;28;19928;-85
2022/01/21 12:22:13;;;;;;;;;;;;;;;;;;5053189;28;19917;-80
2022/01/21 12:24:45;;;;;;;;;;;;;;;;;;5056916;28;20007;-81
2022/01/21 12:27:13;;;;;;;;;;;;;;;;;;5057543;28;19916;-81
2022/01/21 12:29:41;;;;;;;;;;;;;;;;;;5062527;28;20069;-83
2022/01/21 12:32:18;;;;;;;;;;;;;;;;;;5072922;28;20048;-87
2022/01/21 12:34:55;;;;;;;;;;;;;;;;;;5068297;28;20317;-83
2022/01/21 12:37:24;;;;;;;;;;;;;;;;;;5060814;28;19917;-84
2022/01/21 12:39:52;;;;;;;;;;;;;;;;;;5053846;28;19917;-86
2022/01/21 12:42:20;;;;;;;;;;;;;;;;;;5063376;28;19924;-80
2022/01/21 12:44:46;;;;;;;;;;;;;;;;;;5055455;28;19932;-84
2022/01/21 12:47:27;;;;;;;;;;;;;;;;;;5059306;28;19986;-85
2022/01/21 12:49:53;;;;;;;;;;;;;;;;;;5062632;28;19928;-82
2022/01/21 12:53:16;;;;;;;;;;;;;;;;;;5059292;28;19924;-81
2022/01/21 12:55:59;;;;;;;;;;;;;;;;;;4980585;28;19918;-83
2022/01/21 12:58:24;;;;;;;;;;;;;;;;;;4969763;28;19918;-86
2022/01/21 13:00:54;;;;;;;;;;;;;;;;;;4988783;28;19926;-84
2022/01/21 13:03:23;;;;;;;;;;;;;;;;;;4955740;28;19924;-82
2022/01/21 13:06:03;;;;;;;;;;;;;;;;;;5000911;28;19968;-83
2022/01/21 13:08:59;;;;;;;;;;;;;;;;;;4961625;28;19917;-86
2022/01/21 13:11:25;;;;;;;;;;;;;;;;;;4987182;28;19973;-83
2022/01/21 13:17:11;;;;;;;;;;;;;;;;;;4999275;28;19921;-82
2022/01/21 13:23:47;;;;;;;;;;;;;;;;;;4959828;28;20457;-83
2022/01/21 13:26:36;;;;;;;;;;;;;;;;;;4996617;28;20012;-82
2022/01/21 13:32:05;;;;;;;;;;;;;;;;;;5050051;28;19974;-82
2022/01/21 13:34:43;;;;;;;;;;;;;;;;;;5060095;28;20026;-82
2022/01/21 13:37:09;;;;;;;;;;;;;;;;;;5058254;28;19956;-82
2022/01/21 13:39:36;;;;;;;;;;;;;;;;;;5061401;28;19916;-85
2022/01/21 13:42:06;;;;;;;;;;;;;;;;;;5059766;28;20428;-80
2022/01/21 13:44:31;;;;;;;;;;;;;;;;;;5060815;28;20387;-82
2022/01/21 13:47:00;;;;;;;;;;;;;;;;;;5056516;28;19916;-84
2022/01/21 13:49:25;;;;;;;;;;;;;;;;;;5043676;28;19921;-80
2022/01/21 13:52:04;;;;;;;;;;;;;;;;;;5061050;28;19928;-79
2022/01/21 13:54:50;;;;;;;;;;;;;;;;;;5038618;28;19974;-82
2022/01/21 13:57:28;;;;;;;;;;;;;;;;;;5040818;28;19917;-81
2022/01/21 13:59:53;;;;;;;;;;;;;;;;;;5059692;28;19935;-85
2022/01/21 14:02:18;;;;;;;;;;;;;;;;;;5075442;28;19971;-83
2022/01/21 14:04:57;;;;;;;;;;;;;;;;;;5058817;28;19925;-83
2022/01/21 14:07:33;;;;;;;;;;;;;;;;;;5057496;28;19916;-82
2022/01/21 14:09:58;;;;;;;;;;;;;;;;;;5058249;28;19913;-85
2022/01/21 14:12:24;;;;;;;;;;;;;;;;;;5057817;28;19920;-83
2022/01/21 14:14:50;;;;;;;;;;;;;;;;;;5060294;28;19916;-82
2022/01/21 14:17:16;;;;;;;;;;;;;;;;;;5060279;28;19916;-85
2022/01/21 14:19:45;;;;;;;;;;;;;;;;;;5048198;28;19924;-84
2022/01/21 14:22:21;;;;;;;;;;;;;;;;;;5055441;28;19932;-83
2022/01/21 14:24:48;;;;;;;;;;;;;;;;;;5057493;28;19923;-80
2022/01/21 14:27:25;;;;;;;;;;;;;;;;;;5060482;28;19923;-85
2022/01/21 14:29:53;;;;;;;;;;;;;;;;;;5056612;28;19928;-82
2022/01/21 14:32:25;;;;;;;;;;;;;;;;;;5055854;28;19921;-81
2022/01/21 14:35:03;;;;;;;;;;;;;;;;;;5046812;28;19925;-81
2022/01/21 14:37:31;;;;;;;;;;;;;;;;;;5054825;28;19939;-81
2022/01/21 14:40:03;;;;;;;;;;;;;;;;;;5058975;28;19920;-81
2022/01/21 14:42:31;;;;;;;;;;;;;;;;;;5057822;28;20019;-82
2022/01/21 14:44:57;;;;;;;;;;;;;;;;;;5060268;28;20353;-80
2022/01/21 14:47:25;;;;;;;;;;;;;;;;;;5054449;28;19939;-81
2022/01/21 14:50:06;;;;;;;;;;;;;;;;;;5060639;28;19956;-79
2022/01/21 14:52:51;;;;;;;;;;;;;;;;;;5031944;28;20439;-80
2022/01/21 14:55:33;;;;;;;;;;;;;;;;;;5053795;28;19924;-81
2022/01/21 14:58:23;;;;;;;;;;;;;;;;;;5044565;28;19928;-82
2022/01/21 15:00:50;;;;;;;;;;;;;;;;;;5058908;28;20297;-82
2022/01/21 15:03:19;;;;;;;;;;;;;;;;;;5057690;28;20285;-82
2022/01/21 15:05:49;;;;;;;;;;;;;;;;;;5054797;28;19935;-82
2022/01/21 15:08:39;;;;;;;;;;;;;;;;;;5061237;28;19927;-82
2022/01/21 15:14:25;;;;;;;;;;;;;;;;;;5052438;28;19932;-81
2022/01/21 15:16:51;;;;;;;;;;;;;;;;;;5058523;28;19916;-86
2022/01/21 15:19:17;;;;;;;;;;;;;;;;;;5054436;28;19932;-83
2022/01/21 15:21:46;;;;;;;;;;;;;;;;;;5060781;28;19963;-81
2022/01/21 15:24:12;;;;;;;;;;;;;;;;;;5058484;28;19938;-80
2022/01/21 15:26:42;;;;;;;;;;;;;;;;;;5057977;28;20346;-84
2022/01/21 15:29:07;;;;;;;;;;;;;;;;;;5053527;28;19917;-77
2022/01/21 15:31:33;;;;;;;;;;;;;;;;;;5051091;28;19917;-76
2022/01/21 15:33:58;;;;;;;;;;;;;;;;;;5055919;28;19921;-74
2022/01/21 15:36:26;;;;;;;;;;;;;;;;;;5060528;28;20089;-74
2022/01/21 15:38:53;;;;;;;;;;;;;;;;;;5082294;28;20262;-74
2022/01/21 15:41:18;;;;;;;;;;;;;;;;;;5052221;28;20531;-79
2022/01/21 15:43:48;;;;;;;;;;;;;;;;;;5049577;28;19953;-79
2022/01/21 15:46:13;;;;;;;;;;;;;;;;;;5052694;28;19917;-81
2022/01/21 15:48:38;;;;;;;;;;;;;;;;;;5060491;28;20011;-82
2022/01/21 15:51:05;;;;;;;;;;;;;;;;;;5059195;28;21550;-81
2022/01/21 15:53:31;;;;;;;;;;;;;;;;;;5077700;28;20583;-83
2022/01/21 15:56:14;;;;;;;;;;;;;;;;;;5059397;28;19996;-81
2022/01/21 15:58:39;;;;;;;;;;;;;;;;;;5046535;28;19921;-79
2022/01/21 16:01:07;;;;;;;;;;;;;;;;;;5058979;28;19935;-81
2022/01/21 16:03:42;;;;;;;;;;;;;;;;;;5055992;28;19927;-80
2022/01/21 16:06:08;;;;;;;;;;;;;;;;;;5062276;28;19967;-81
2022/01/21 16:08:33;;;;;;;;;;;;;;;;;;5061790;28;19924;-82
2022/01/21 16:10:58;;;;;;;;;;;;;;;;;;5060271;28;19921;-83
2022/01/21 16:13:24;;;;;;;;;;;;;;;;;;5063974;28;20250;-80
2022/01/21 16:15:49;;;;;;;;;;;;;;;;;;5061126;28;20015;-87
2022/01/21 16:18:14;;;;;;;;;;;;;;;;;;5049082;28;19923;-84
2022/01/21 16:20:40;;;;;;;;;;;;;;;;;;5060498;28;20338;-83
2022/01/21 16:23:05;;;;;;;;;;;;;;;;;;5059746;28;19925;-84
2022/01/21 16:25:31;;;;;;;;;;;;;;;;;;5058997;28;19917;-83
2022/01/21 16:27:56;;;;;;;;;;;;;;;;;;5060906;28;20425;-81
2022/01/21 16:30:24;;;;;;;;;;;;;;;;;;5062655;28;19916;-79
2022/01/21 16:32:49;;;;;;;;;;;;;;;;;;5059331;28;19939;-81
2022/01/21 16:35:15;;;;;;;;;;;;;;;;;;5058868;28;19924;-86
2022/01/21 16:37:40;;;;;;;;;;;;;;;;;;5059638;28;19917;-88
2022/01/21 16:40:06;;;;;;;;;;;;;;;;;;5065307;28;19924;-87
2022/01/21 16:42:33;;;;;;;;;;;;;;;;;;5064069;28;19966;-89
2022/01/21 16:45:01;;;;;;;;;;;;;;;;;;5064879;28;19999;-88
2022/01/21 16:47:27;;;;;;;;;;;;;;;;;;5062774;28;19917;-83
2022/01/21 16:49:56;;;;;;;;;;;;;;;;;;5059019;28;19917;-87
2022/01/21 16:52:21;;;;;;;;;;;;;;;;;;5057676;28;19928;-84
2022/01/21 16:54:49;;;;;;;;;;;;;;;;;;5064820;28;19917;-88
2022/01/21 16:57:14;;;;;;;;;;;;;;;;;;5038844;28;20227;-85
2022/01/21 16:59:43;;;;;;;;;;;;;;;;;;5054860;28;19928;-86
2022/01/21 17:02:09;;;;;;;;;;;;;;;;;;5054775;28;19979;-85
2022/01/21 17:04:34;;;;;;;;;;;;;;;;;;5054996;28;19963;-86
2022/01/21 17:06:59;;;;;;;;;;;;;;;;;;5055901;28;19925;-86
2022/01/21 17:09:25;;;;;;;;;;;;;;;;;;5056563;28;19916;-86
2022/01/21 17:11:50;;;;;;;;;;;;;;;;;;5056821;28;20314;-86
2022/01/21 17:14:15;;;;;;;;;;;;;;;;;;5056853;28;19978;-87
2022/01/21 17:16:40;;;;;;;;;;;;;;;;;;5056615;28;20046;-86
2022/01/21 17:19:10;;;;;;;;;;;;;;;;;;5054604;28;19932;-83
2022/01/21 17:21:35;;;;;;;;;;;;;;;;;;5056066;28;19921;-81
2022/01/21 17:24:04;;;;;;;;;;;;;;;;;;5055945;28;20464;-83
2022/01/21 17:26:29;;;;;;;;;;;;;;;;;;5056014;28;19924;-86
2022/01/21 17:28:57;;;;;;;;;;;;;;;;;;5044241;28;19921;-85
2022/01/21 17:31:27;;;;;;;;;;;;;;;;;;5054117;28;19916;-84
2022/01/21 17:33:52;;;;;;;;;;;;;;;;;;5054984;28;19948;-85
2022/01/21 17:36:20;;;;;;;;;;;;;;;;;;5055928;28;20327;-85
2022/01/21 17:41:58;;;;;;;;;;;;;;;;;;5056945;28;19924;-84
2022/01/21 17:44:26;;;;;;;;;;;;;;;;;;5038144;28;19917;-84
2022/01/21 17:46:51;;;;;;;;;;;;;;;;;;5051533;28;19924;-83
2022/01/21 17:49:32;;;;;;;;;;;;;;;;;;5056248;28;20282;-83
2022/01/21 17:52:03;;;;;;;;;;;;;;;;;;5053287;28;19994;-87
2022/01/21 17:54:31;;;;;;;;;;;;;;;;;;5054521;28;20381;-86
2022/01/21 17:56:58;;;;;;;;;;;;;;;;;;5057809;28;20532;-83
2022/01/21 17:59:24;;;;;;;;;;;;;;;;;;5062658;28;19925;-84
2022/01/21 18:01:49;;;;;;;;;;;;;;;;;;5057435;28;20252;-87
2022/01/21 18:04:14;;;;;;;;;;;;;;;;;;5059471;28;20397;-90
2022/01/21 18:06:40;;;;;;;;;;;;;;;;;;5062458;28;20034;-82
2022/01/21 18:09:18;;;;;;;;;;;;;;;;;;5068722;28;19929;-93